createdAt,value
2018-06-22T00:01:27.065Z,14.90
2018-06-22T00:03:56.604Z,14.90
2018-06-22T00:06:24.199Z,14.90
2018-06-22T00:08:51.754Z,14.80
2018-06-22T00:11:19.281Z,14.80
2018-06-22T00:13:48.789Z,14.80
2018-06-22T00:16:16.323Z,14.70
2018-06-22T00:18:43.878Z,14.60
2018-06-22T00:21:11.446Z,14.50
2018-06-22T00:23:38.973Z,14.40
2018-06-22T00:26:07.301Z,14.30
2018-06-22T00:28:34.832Z,14.30
2018-06-22T00:31:02.383Z,14.20
2018-06-22T00:33:29.976Z,14.20
2018-06-22T00:35:57.514Z,14.10
2018-06-22T00:38:25.073Z,14.10
2018-06-22T00:40:52.607Z,14.00
2018-06-22T00:43:20.167Z,13.90
2018-06-22T00:45:48.468Z,13.80
2018-06-22T00:48:17.991Z,13.70
2018-06-22T00:50:45.528Z,13.80
2018-06-22T00:53:13.092Z,13.80
2018-06-22T00:55:40.646Z,13.80
2018-06-22T00:58:08.168Z,13.90
2018-06-22T01:00:35.727Z,13.90
2018-06-22T01:03:03.263Z,13.80
2018-06-22T01:05:30.833Z,13.80
2018-06-22T01:07:58.376Z,13.80
2018-06-22T01:10:25.908Z,13.80
2018-06-22T01:12:53.472Z,13.80
2018-06-22T01:15:21.980Z,13.70
2018-06-22T01:17:50.547Z,13.60
2018-06-22T01:20:18.749Z,13.50
2018-06-22T01:22:46.280Z,13.50
2018-06-22T01:25:13.829Z,13.60
2018-06-22T01:27:41.353Z,13.50
2018-06-22T01:30:08.937Z,13.60
2018-06-22T01:32:36.505Z,13.30
2018-06-22T01:35:04.081Z,13.30
2018-06-22T01:37:31.618Z,13.20
2018-06-22T01:39:59.162Z,13.20
2018-06-22T01:42:26.751Z,13.00
2018-06-22T01:44:54.305Z,12.60
2018-06-22T01:47:21.864Z,12.70
2018-06-22T01:49:49.396Z,12.80
2018-06-22T01:52:16.944Z,12.70
2018-06-22T01:54:44.512Z,12.70
2018-06-22T01:57:12.844Z,12.60
2018-06-22T01:59:42.332Z,12.60
2018-06-22T02:02:09.872Z,12.60
2018-06-22T02:04:37.446Z,12.50
2018-06-22T02:07:04.983Z,12.20
2018-06-22T02:09:32.517Z,12.10
2018-06-22T02:12:00.084Z,12.20
2018-06-22T02:14:28.392Z,12.20
2018-06-22T02:16:55.956Z,12.20
2018-06-22T02:19:23.522Z,12.30
2018-06-22T02:21:51.059Z,12.10
2018-06-22T02:24:18.599Z,12.00
2018-06-22T02:26:46.181Z,11.90
2018-06-22T02:29:13.705Z,11.70
2018-06-22T02:31:42.051Z,11.80
2018-06-22T02:34:09.588Z,11.80
2018-06-22T02:36:38.077Z,11.80
2018-06-22T02:39:05.655Z,11.60
2018-06-22T02:41:33.199Z,11.70
2018-06-22T02:44:00.752Z,11.60
2018-06-22T02:46:28.289Z,11.60
2018-06-22T02:48:56.027Z,11.60
2018-06-22T02:51:23.568Z,11.50
2018-06-22T02:53:51.120Z,11.50
2018-06-22T02:56:18.667Z,11.50
2018-06-22T02:58:46.226Z,11.50
2018-06-22T03:01:13.766Z,11.50
2018-06-22T03:03:41.317Z,11.40
2018-06-22T03:06:08.840Z,11.20
2018-06-22T03:08:37.174Z,11.10
2018-06-22T03:11:04.721Z,11.00
2018-06-22T03:13:32.255Z,11.00
2018-06-22T03:15:59.810Z,11.00
2018-06-22T03:18:27.349Z,10.90
2018-06-22T03:20:54.922Z,11.00
2018-06-22T03:23:22.490Z,10.90
2018-06-22T03:25:50.058Z,10.90
2018-06-22T03:28:17.593Z,10.90
2018-06-22T03:30:46.024Z,10.90
2018-06-22T03:33:13.620Z,10.90
2018-06-22T03:35:47.177Z,10.80
2018-06-22T03:38:14.696Z,10.80
2018-06-22T03:40:42.980Z,10.80
2018-06-22T03:43:10.528Z,10.70
2018-06-22T03:45:38.055Z,10.70
2018-06-22T03:48:05.589Z,10.70
2018-06-22T03:50:35.092Z,10.60
2018-06-22T03:53:02.618Z,10.60
2018-06-22T03:55:30.161Z,10.60
2018-06-22T03:57:58.481Z,10.40
2018-06-22T04:00:26.012Z,10.40
2018-06-22T04:02:53.571Z,10.40
2018-06-22T04:05:22.052Z,10.40
2018-06-22T04:07:49.615Z,10.50
2018-06-22T04:10:17.188Z,10.50
2018-06-22T04:12:44.724Z,10.50
2018-06-22T04:15:12.269Z,10.50
2018-06-22T04:17:40.556Z,10.60
2018-06-22T04:20:08.690Z,10.60
2018-06-22T04:22:36.211Z,10.70
2018-06-22T04:25:03.772Z,10.80
2018-06-22T04:27:31.320Z,10.80
2018-06-22T04:29:58.844Z,10.80
2018-06-22T04:32:26.420Z,10.80
2018-06-22T04:34:54.712Z,10.90
2018-06-22T04:37:22.264Z,10.90
2018-06-22T04:39:49.818Z,11.00
2018-06-22T04:42:18.131Z,10.90
2018-06-22T04:44:46.604Z,10.90
2018-06-22T04:47:14.150Z,11.00
2018-06-22T04:49:41.702Z,11.20
2018-06-22T04:52:09.231Z,11.30
2018-06-22T04:54:36.772Z,11.40
2018-06-22T04:57:04.295Z,11.30
2018-06-22T04:59:31.825Z,11.40
2018-06-22T05:02:00.149Z,11.60
2018-06-22T05:04:27.668Z,11.60
2018-06-22T05:06:55.225Z,11.70
2018-06-22T05:09:23.587Z,11.90
2018-06-22T05:11:52.056Z,11.90
2018-06-22T05:14:19.579Z,11.90
2018-06-22T05:16:47.146Z,11.90
2018-06-22T05:19:14.669Z,12.00
2018-06-22T05:21:42.251Z,12.00
2018-06-22T05:24:09.781Z,11.90
2018-06-22T05:26:39.284Z,11.70
2018-06-22T05:29:07.574Z,11.90
2018-06-22T05:31:35.154Z,11.80
2018-06-22T05:34:02.691Z,12.00
2018-06-22T05:36:30.273Z,12.10
2018-06-22T05:38:57.839Z,12.10
2018-06-22T05:41:25.385Z,11.90
2018-06-22T05:43:53.228Z,11.80
2018-06-22T05:46:20.779Z,12.00
2018-06-22T05:48:50.300Z,12.10
2018-06-22T05:51:18.796Z,12.20
2018-06-22T05:53:46.339Z,12.30
2018-06-22T05:56:16.435Z,12.30
2018-06-22T05:58:48.992Z,12.30
2018-06-22T06:01:16.572Z,12.40
2018-06-22T06:03:44.892Z,12.50
2018-06-22T06:06:12.448Z,12.50
2018-06-22T06:08:39.973Z,12.80
2018-06-22T06:11:09.353Z,13.00
2018-06-22T06:13:36.904Z,13.00
2018-06-22T06:16:07.000Z,13.20
2018-06-22T06:18:34.520Z,13.20
2018-06-22T06:21:03.080Z,13.20
2018-06-22T06:23:30.641Z,13.50
2018-06-22T06:25:58.940Z,13.40
2018-06-22T06:28:26.488Z,13.40
2018-06-22T06:30:55.748Z,13.40
2018-06-22T06:33:23.324Z,13.40
2018-06-22T06:35:50.853Z,13.70
2018-06-22T06:38:18.395Z,13.70
2018-06-22T06:40:45.925Z,14.00
2018-06-22T06:43:14.254Z,14.00
2018-06-22T06:45:43.389Z,14.00
2018-06-22T06:48:10.987Z,14.20
2018-06-22T06:50:38.508Z,14.40
2018-06-22T06:53:06.832Z,14.80
2018-06-22T06:55:35.568Z,14.80
2018-06-22T06:58:03.103Z,14.80
2018-06-22T07:00:30.661Z,15.00
2018-06-22T07:02:58.232Z,15.00
2018-06-22T07:05:25.756Z,15.00
2018-06-22T07:07:53.303Z,14.90
2018-06-22T07:10:20.852Z,14.80
2018-06-22T07:12:48.372Z,14.90
2018-06-22T07:15:15.926Z,14.90
2018-06-22T07:17:43.444Z,15.20
2018-06-22T07:20:10.964Z,15.20
2018-06-22T07:22:39.289Z,15.40
2018-06-22T07:25:06.840Z,15.30
2018-06-22T07:27:34.395Z,15.30
2018-06-22T07:30:01.917Z,15.30
2018-06-22T07:32:30.242Z,15.70
2018-06-22T07:34:57.795Z,15.70
2018-06-22T07:37:25.328Z,15.80
2018-06-22T07:39:52.884Z,16.00
2018-06-22T07:42:20.519Z,15.80
2018-06-22T07:44:48.069Z,15.90
2018-06-22T07:47:15.641Z,16.00
2018-06-22T07:49:43.421Z,16.10
2018-06-22T07:52:11.045Z,15.80
2018-06-22T07:54:40.111Z,15.60
2018-06-22T07:57:07.633Z,15.60
2018-06-22T07:59:36.144Z,15.60
2018-06-22T08:02:03.696Z,15.60
2018-06-22T08:04:32.170Z,15.40
2018-06-22T08:06:59.740Z,15.20
2018-06-22T08:09:27.256Z,15.30
2018-06-22T08:11:54.808Z,15.60
2018-06-22T08:14:22.388Z,15.50
2018-06-22T08:16:49.979Z,15.90
2018-06-22T08:19:17.487Z,16.40
2018-06-22T08:21:45.812Z,16.30
2018-06-22T08:24:13.340Z,16.30
2018-06-22T08:26:41.638Z,16.30
2018-06-22T08:29:09.184Z,16.20
2018-06-22T08:31:38.691Z,16.10
2018-06-22T08:34:06.212Z,15.80
2018-06-22T08:36:34.536Z,15.50
2018-06-22T08:39:02.090Z,15.50
2018-06-22T08:41:29.699Z,15.60
2018-06-22T08:43:57.231Z,15.70
2018-06-22T08:46:24.768Z,15.90
2018-06-22T08:48:52.374Z,15.50
2018-06-22T08:51:19.884Z,15.30
2018-06-22T08:53:49.389Z,15.30
2018-06-22T08:56:16.948Z,15.80
2018-06-22T08:58:44.499Z,16.10
2018-06-22T09:01:12.093Z,16.40
2018-06-22T09:03:40.387Z,16.60
2018-06-22T09:06:07.916Z,16.60
2018-06-22T09:08:35.446Z,16.50
2018-06-22T09:11:03.763Z,16.50
2018-06-22T09:13:31.285Z,16.50
2018-06-22T09:15:58.844Z,16.40
2018-06-22T09:18:26.363Z,16.30
2018-06-22T09:20:53.919Z,16.30
2018-06-22T09:23:21.444Z,16.40
2018-06-22T09:25:48.981Z,16.30
2018-06-22T09:28:16.561Z,16.40
2018-06-22T09:30:44.111Z,16.30
2018-06-22T09:33:11.658Z,16.40
2018-06-22T09:35:39.192Z,16.50
2018-06-22T09:38:07.493Z,16.60
2018-06-22T09:40:35.048Z,16.50
2018-06-22T09:43:03.556Z,16.30
2018-06-22T09:45:31.182Z,16.60
2018-06-22T09:47:59.507Z,17.10
2018-06-22T09:50:27.997Z,17.10
2018-06-22T09:52:55.563Z,17.40
2018-06-22T09:55:23.092Z,17.00
2018-06-22T09:57:50.640Z,16.90
2018-06-22T10:00:18.188Z,16.70
2018-06-22T10:02:45.760Z,17.00
2018-06-22T10:05:13.316Z,17.20
2018-06-22T10:07:40.856Z,17.40
2018-06-22T10:10:08.388Z,17.50
2018-06-22T10:12:35.944Z,17.30
2018-06-22T10:15:03.473Z,17.50
2018-06-22T10:17:31.049Z,17.50
2018-06-22T10:19:58.604Z,17.60
2018-06-22T10:22:26.133Z,17.60
2018-06-22T10:24:53.721Z,17.80
2018-06-22T10:27:22.233Z,17.70
2018-06-22T10:29:49.791Z,17.80
2018-06-22T10:32:17.324Z,17.60
2018-06-22T10:34:44.853Z,17.60
2018-06-22T10:37:13.452Z,17.60
2018-06-22T10:39:40.980Z,17.70
2018-06-22T10:42:09.497Z,17.60
2018-06-22T10:44:37.971Z,17.70
2018-06-22T10:47:06.481Z,17.40
2018-06-22T10:49:34.984Z,17.60
2018-06-22T10:52:03.317Z,18.40
2018-06-22T10:54:30.835Z,18.40
2018-06-22T10:56:59.368Z,18.10
2018-06-22T10:59:26.894Z,18.30
2018-06-22T11:01:54.424Z,18.40
2018-06-22T11:04:21.983Z,18.30
2018-06-22T11:06:50.466Z,18.10
2018-06-22T11:09:18.213Z,18.10
2018-06-22T11:11:45.776Z,18.30
2018-06-22T11:14:13.332Z,18.40
2018-06-22T11:16:41.908Z,18.40
2018-06-22T11:19:09.427Z,18.50
2018-06-22T11:21:36.982Z,18.20
2018-06-22T11:24:04.531Z,18.40
2018-06-22T11:26:32.107Z,18.90
2018-06-22T11:28:59.651Z,18.70
2018-06-22T11:31:28.184Z,18.70
2018-06-22T11:33:55.740Z,19.00
2018-06-22T11:36:23.317Z,19.30
2018-06-22T11:38:50.892Z,19.40
2018-06-22T11:41:19.426Z,19.30
2018-06-22T11:43:47.462Z,19.10
2018-06-22T11:46:15.108Z,19.30
2018-06-22T11:48:42.664Z,18.80
2018-06-22T11:51:10.292Z,18.90
2018-06-22T11:53:39.054Z,19.70
2018-06-22T11:56:07.563Z,19.70
2018-06-22T11:58:36.213Z,19.90
2018-06-22T12:01:03.791Z,20.10
2018-06-22T12:03:31.333Z,20.00
2018-06-22T12:05:58.889Z,20.10
2018-06-22T12:08:26.445Z,19.80
2018-06-22T12:10:54.673Z,19.30
2018-06-22T12:13:23.456Z,19.70
2018-06-22T12:15:51.684Z,19.60
2018-06-22T12:18:19.294Z,19.20
2018-06-22T12:20:46.914Z,19.20
2018-06-22T12:23:14.446Z,19.80
2018-06-22T12:25:42.009Z,20.20
2018-06-22T12:28:09.529Z,20.80
2018-06-22T12:30:38.044Z,21.30
2018-06-22T12:33:10.593Z,21.60
2018-06-22T12:35:38.345Z,22.00
2018-06-22T12:38:05.926Z,21.90
2018-06-22T12:40:33.463Z,22.10
2018-06-22T12:43:01.029Z,22.40
2018-06-22T12:45:28.587Z,22.00
2018-06-22T12:47:56.125Z,22.30
2018-06-22T12:50:23.689Z,22.20
2018-06-22T12:52:52.321Z,20.90
2018-06-22T12:55:19.858Z,20.90
2018-06-22T12:57:47.456Z,21.30
2018-06-22T13:00:15.009Z,21.70
2018-06-22T13:02:42.793Z,22.20
2018-06-22T13:05:10.355Z,22.90
2018-06-22T13:07:37.916Z,22.10
2018-06-22T13:10:05.499Z,21.70
2018-06-22T13:12:33.030Z,21.90
2018-06-22T13:15:00.608Z,22.30
2018-06-22T13:17:29.616Z,22.90
2018-06-22T13:19:58.131Z,22.90
2018-06-22T13:22:25.803Z,23.60
2018-06-22T13:24:53.363Z,23.50
2018-06-22T13:27:20.908Z,23.40
2018-06-22T13:29:48.457Z,23.80
2018-06-22T13:32:16.874Z,22.80
2018-06-22T13:34:44.421Z,22.80
2018-06-22T13:37:12.953Z,22.50
2018-06-22T13:39:41.419Z,23.00
2018-06-22T13:42:08.968Z,22.80
2018-06-22T13:44:36.516Z,22.70
2018-06-22T13:47:04.045Z,23.00
2018-06-22T13:49:31.594Z,23.60
2018-06-22T13:51:59.116Z,23.10
2018-06-22T13:54:26.634Z,22.20
2018-06-22T13:56:54.224Z,22.00
2018-06-22T13:59:21.769Z,21.40
2018-06-22T14:01:49.316Z,21.40
2018-06-22T14:04:16.842Z,21.60
2018-06-22T14:06:50.677Z,20.80
2018-06-22T14:09:18.281Z,20.80
2018-06-22T14:11:45.789Z,20.20
2018-06-22T14:14:15.299Z,20.00
2018-06-22T14:16:42.855Z,19.90
2018-06-22T14:19:11.314Z,19.80
2018-06-22T14:21:38.885Z,19.60
2018-06-22T14:24:06.455Z,20.60
2018-06-22T14:26:34.000Z,21.30
2018-06-22T14:29:02.322Z,23.50
2018-06-22T14:31:30.800Z,23.50
2018-06-22T14:33:58.345Z,22.70
2018-06-22T14:36:25.906Z,22.00
2018-06-22T14:38:53.436Z,23.80
2018-06-22T14:41:21.849Z,26.30
2018-06-22T14:43:50.244Z,26.20
2018-06-22T14:46:17.768Z,26.40
2018-06-22T14:48:47.299Z,26.00
2018-06-22T14:51:14.828Z,26.00
2018-06-22T14:53:42.352Z,26.50
2018-06-22T14:59:22.870Z,26.10
2018-06-22T15:04:59.947Z,26.70
2018-06-22T15:10:28.637Z,22.80
2018-06-22T15:12:56.168Z,21.50
2018-06-22T15:15:23.728Z,21.00
2018-06-22T15:17:53.235Z,20.30
2018-06-22T15:20:20.800Z,20.20
2018-06-22T15:22:48.343Z,20.30
2018-06-22T15:25:15.975Z,20.70
2018-06-22T15:27:43.509Z,21.00
2018-06-22T15:30:11.028Z,20.50
2018-06-22T15:32:41.249Z,21.40
2018-06-22T15:38:21.764Z,23.00
2018-06-22T15:44:02.851Z,23.30
2018-06-22T15:49:38.944Z,22.10
2018-06-22T15:55:00.140Z,21.30
2018-06-22T15:57:27.700Z,22.60
2018-06-22T15:59:55.223Z,23.50
2018-06-22T16:02:22.836Z,23.80
2018-06-22T16:04:50.361Z,22.90
2018-06-22T16:07:17.907Z,22.50
2018-06-22T16:09:45.461Z,22.30
2018-06-22T16:12:13.979Z,21.50
2018-06-22T16:14:42.138Z,21.20
2018-06-22T16:20:26.084Z,22.50
2018-06-22T16:23:10.327Z,23.80
2018-06-22T16:28:31.801Z,25.60
2018-06-22T16:30:59.346Z,23.30
2018-06-22T16:33:28.839Z,22.00
2018-06-22T16:35:56.391Z,21.20
2018-06-22T16:38:23.976Z,20.70
2018-06-22T16:40:51.514Z,20.40
2018-06-22T16:43:19.045Z,19.70
2018-06-22T16:45:47.783Z,19.60
2018-06-22T16:48:15.315Z,19.50
2018-06-22T16:50:42.885Z,19.40
2018-06-22T16:53:10.430Z,19.60
2018-06-22T16:55:38.082Z,19.40
2018-06-22T16:58:05.655Z,19.30
2018-06-22T17:00:33.196Z,19.40
2018-06-22T17:03:00.744Z,19.70
2018-06-22T17:05:28.290Z,19.60
2018-06-22T17:11:10.062Z,19.80
2018-06-22T17:13:43.347Z,19.40
2018-06-22T17:19:05.068Z,19.60
2018-06-22T17:21:33.352Z,18.90
2018-06-22T17:24:00.916Z,18.90
2018-06-22T17:26:28.433Z,18.90
2018-06-22T17:28:55.992Z,18.90
2018-06-22T17:31:23.544Z,18.90
2018-06-22T17:33:51.107Z,19.10
2018-06-22T17:36:18.655Z,19.40
2018-06-22T17:38:46.185Z,19.50
2018-06-22T17:41:13.733Z,19.50
2018-06-22T17:43:41.357Z,19.30
2018-06-22T17:46:08.977Z,19.00
2018-06-22T17:48:36.635Z,18.60
2018-06-22T17:51:04.172Z,18.70
2018-06-22T17:53:31.715Z,18.70
2018-06-22T17:56:00.035Z,18.60
2018-06-22T17:58:27.588Z,18.70
2018-06-22T18:04:03.968Z,18.60
2018-06-22T18:06:32.524Z,18.60
2018-06-22T18:09:00.857Z,18.60
2018-06-22T18:11:34.065Z,18.60
2018-06-22T18:14:01.607Z,18.60
2018-06-22T18:16:30.191Z,18.40
2018-06-22T18:18:57.757Z,18.30
2018-06-22T18:21:26.149Z,18.20
2018-06-22T18:23:53.759Z,17.90
2018-06-22T18:26:22.759Z,18.10
2018-06-22T18:28:50.643Z,18.10
2018-06-22T18:31:19.047Z,18.10
2018-06-22T18:33:47.360Z,17.90
2018-06-22T18:36:14.922Z,17.90
2018-06-22T18:38:42.448Z,17.90
2018-06-22T18:41:10.012Z,17.60
2018-06-22T18:43:37.573Z,17.70
2018-06-22T18:46:05.120Z,17.60
2018-06-22T18:48:32.678Z,17.50
2018-06-22T18:51:00.972Z,17.40
2018-06-22T18:53:34.276Z,17.40
2018-06-22T18:56:07.368Z,17.20
2018-06-22T19:01:39.811Z,17.00
2018-06-22T19:04:08.385Z,17.20
2018-06-22T19:06:37.179Z,17.10
2018-06-22T19:09:06.041Z,16.90
2018-06-22T19:11:33.622Z,17.00
2018-06-22T19:14:01.163Z,17.00
2018-06-22T19:16:28.706Z,17.00
2018-06-22T19:18:57.210Z,17.00
2018-06-22T19:21:26.703Z,17.00
2018-06-22T19:23:55.186Z,17.00
2018-06-22T19:26:22.740Z,16.90
2018-06-22T19:28:50.280Z,16.90
2018-06-22T19:31:17.839Z,16.80
2018-06-22T19:33:46.324Z,16.70
2018-06-22T19:36:13.871Z,16.60
2018-06-22T19:38:41.426Z,16.60
2018-06-22T19:41:10.001Z,16.50
2018-06-22T19:43:37.620Z,16.40
2018-06-22T19:48:59.823Z,16.20
2018-06-22T19:54:21.037Z,16.00
2018-06-22T19:56:48.558Z,15.80
2018-06-22T19:59:18.048Z,15.70
2018-06-22T20:01:46.498Z,15.60
2018-06-22T20:04:14.832Z,15.30
2018-06-22T20:06:42.356Z,15.30
2018-06-22T20:09:09.895Z,15.20
2018-06-22T20:11:38.186Z,15.00
2018-06-22T20:14:05.702Z,15.00
2018-06-22T20:16:33.290Z,14.80
2018-06-22T20:19:00.971Z,14.80
2018-06-22T20:21:28.529Z,14.60
2018-06-22T20:23:56.077Z,14.60
2018-06-22T20:26:23.613Z,14.50
2018-06-22T20:28:51.150Z,14.40
2018-06-22T20:31:18.708Z,14.30
2018-06-22T20:33:46.229Z,14.30
2018-06-22T20:39:30.301Z,14.20
2018-06-22T20:45:11.323Z,14.00
2018-06-22T20:47:38.880Z,14.00
2018-06-22T20:53:02.988Z,14.00
2018-06-22T20:55:30.546Z,14.00
2018-06-22T20:57:58.072Z,13.90
2018-06-22T21:00:25.596Z,13.90
2018-06-22T21:02:53.159Z,13.90
2018-06-22T21:05:21.439Z,13.80
2018-06-22T21:07:48.997Z,13.70
2018-06-22T21:10:17.283Z,13.80
2018-06-22T21:12:47.098Z,13.80
2018-06-22T21:15:14.568Z,13.70
2018-06-22T21:17:42.150Z,13.70
2018-06-22T21:20:11.624Z,13.60
2018-06-22T21:22:39.293Z,13.70
2018-06-22T21:25:06.874Z,13.60
2018-06-22T21:27:34.421Z,13.60
2018-06-22T21:33:05.372Z,13.20
2018-06-22T21:38:48.905Z,13.30
2018-06-22T21:41:16.480Z,13.30
2018-06-22T21:43:44.047Z,13.30
2018-06-22T21:46:11.567Z,13.30
2018-06-22T21:48:39.885Z,13.00
2018-06-22T21:51:07.457Z,13.00
2018-06-22T21:53:35.040Z,13.00
2018-06-22T21:56:02.575Z,13.00
2018-06-22T21:58:30.096Z,12.90
2018-06-22T22:00:58.605Z,12.90
2018-06-22T22:03:26.132Z,12.80
2018-06-22T22:05:53.685Z,12.80
2018-06-22T22:08:22.016Z,12.80
2018-06-22T22:10:49.552Z,12.80
2018-06-22T22:13:17.096Z,12.80
2018-06-22T22:15:44.649Z,12.80
2018-06-22T22:18:12.177Z,12.70
2018-06-22T22:20:41.743Z,12.70
2018-06-22T22:23:09.266Z,12.80
2018-06-22T22:25:37.587Z,12.50
2018-06-22T22:28:05.137Z,12.50
2018-06-22T22:30:32.673Z,12.60
2018-06-22T22:33:00.197Z,12.60
2018-06-22T22:35:28.709Z,12.60
2018-06-22T22:37:57.196Z,12.60
2018-06-22T22:40:25.528Z,12.60
2018-06-22T22:42:53.092Z,12.50
2018-06-22T22:45:20.636Z,12.50
2018-06-22T22:47:48.204Z,12.50
2018-06-22T22:50:15.727Z,12.50
2018-06-22T22:52:43.279Z,12.50
2018-06-22T22:55:12.792Z,12.30
2018-06-22T22:57:41.272Z,12.30
2018-06-22T23:00:08.836Z,12.30
2018-06-22T23:02:36.367Z,12.20
2018-06-22T23:05:03.889Z,12.10
2018-06-22T23:07:33.399Z,12.20
2018-06-22T23:10:00.925Z,12.30
2018-06-22T23:12:28.484Z,12.20
2018-06-22T23:14:56.003Z,12.30
2018-06-22T23:17:23.555Z,12.20
2018-06-22T23:19:51.121Z,12.00
2018-06-22T23:22:18.648Z,12.00
2018-06-22T23:24:47.905Z,11.60
2018-06-22T23:27:15.459Z,11.60
2018-06-22T23:29:42.983Z,11.60
2018-06-22T23:32:11.292Z,11.40
2018-06-22T23:34:38.837Z,11.40
2018-06-22T23:37:06.364Z,11.60
2018-06-22T23:39:33.924Z,11.70
2018-06-22T23:42:01.464Z,11.80
2018-06-22T23:44:30.980Z,11.70
2018-06-22T23:46:58.511Z,11.60
2018-06-22T23:49:26.048Z,11.60
2018-06-22T23:51:54.567Z,11.50
2018-06-22T23:54:22.104Z,11.40
2018-06-22T23:56:49.626Z,11.40
2018-06-22T23:59:17.150Z,11.30
